Grand Etang, Canada
Current Conditions -  °F | °C
As of 8:00 AM on Thursday 23 Oct 2014 (Local Time) from CYQY Reporting Station
Broken Clouds Broken Clouds  
Wind Chill: 50°   Ceiling: 1700
Heat Index: 50°   Visibility: 15mi
Dew Point: 45°   Wind: 10mph
Humidity: 82%   Direction: 90°E
Pressure: 30.27"   Gusts: 17mph
Location:  46.55°N, 61.04°W
Report Text: CYQY 231100Z 09009G15KT 15SM BKN017 BKN120 BKN210 10/07 A3027 RMK SC5AC1CI1 SLP250
Loading
Personal Weather Stations






























Interactive Weather Map
Tropical Storm Tracking
New forecast layout! Learn more

10-Day Weather Forecast

Advertisements
Track Severe Weather on mobile